sensor_id;sensor_type;location;lat;lon;timestamp;P1;durP1;ratioP1;P2;durP2;ratioP2
24277;SDS011;12394;42.692;23.314;2023-04-15T00:02:14;11.97;;;7.17;;
24277;SDS011;12394;42.692;23.314;2023-04-15T00:04:42;12.17;;;7.20;;
24277;SDS011;12394;42.692;23.314;2023-04-15T00:07:07;10.87;;;7.17;;
24277;SDS011;12394;42.692;23.314;2023-04-15T00:09:32;14.20;;;7.70;;
24277;SDS011;12394;42.692;23.314;2023-04-15T00:11:58;12.53;;;7.40;;
24277;SDS011;12394;42.692;23.314;2023-04-15T00:14:23;12.57;;;6.47;;
24277;SDS011;12394;42.692;23.314;2023-04-15T00:16:49;14.30;;;7.43;;
24277;SDS011;12394;42.692;23.314;2023-04-15T00:19:19;12.30;;;7.30;;
24277;SDS011;12394;42.692;23.314;2023-04-15T00:21:44;9.47;;;6.43;;
24277;SDS011;12394;42.692;23.314;2023-04-15T00:24:10;17.87;;;8.10;;
24277;SDS011;12394;42.692;23.314;2023-04-15T00:26:35;11.73;;;7.73;;
24277;SDS011;12394;42.692;23.314;2023-04-15T00:29:01;14.70;;;7.43;;
24277;SDS011;12394;42.692;23.314;2023-04-15T00:31:26;11.63;;;6.80;;
24277;SDS011;12394;42.692;23.314;2023-04-15T00:33:52;10.80;;;6.57;;
24277;SDS011;12394;42.692;23.314;2023-04-15T00:36:17;12.53;;;7.43;;
24277;SDS011;12394;42.692;23.314;2023-04-15T00:38:43;13.60;;;6.97;;
24277;SDS011;12394;42.692;23.314;2023-04-15T00:41:08;15.47;;;7.67;;
24277;SDS011;12394;42.692;23.314;2023-04-15T00:43:35;12.57;;;7.77;;
24277;SDS011;12394;42.692;23.314;2023-04-15T00:46:00;11.87;;;7.23;;
24277;SDS011;12394;42.692;23.314;2023-04-15T00:48:28;13.17;;;7.67;;
24277;SDS011;12394;42.692;23.314;2023-04-15T00:50:54;14.30;;;8.20;;
24277;SDS011;12394;42.692;23.314;2023-04-15T00:53:20;15.73;;;7.77;;
24277;SDS011;12394;42.692;23.314;2023-04-15T00:55:45;11.77;;;8.07;;
24277;SDS011;12394;42.692;23.314;2023-04-15T00:58:11;14.33;;;8.30;;
24277;SDS011;12394;42.692;23.314;2023-04-15T01:00:36;12.17;;;7.93;;
24277;SDS011;12394;42.692;23.314;2023-04-15T01:03:02;13.80;;;7.27;;
24277;SDS011;12394;42.692;23.314;2023-04-15T01:05:27;10.53;;;7.20;;
24277;SDS011;12394;42.692;23.314;2023-04-15T01:07:54;14.50;;;7.53;;
24277;SDS011;12394;42.692;23.314;2023-04-15T01:10:20;15.03;;;7.70;;
24277;SDS011;12394;42.692;23.314;2023-04-15T01:12:46;12.13;;;6.50;;
24277;SDS011;12394;42.692;23.314;2023-04-15T01:15:12;12.67;;;7.43;;
24277;SDS011;12394;42.692;23.314;2023-04-15T01:17:37;12.13;;;7.13;;
24277;SDS011;12394;42.692;23.314;2023-04-15T01:20:04;10.93;;;7.23;;
24277;SDS011;12394;42.692;23.314;2023-04-15T01:22:30;11.70;;;6.80;;
24277;SDS011;12394;42.692;23.314;2023-04-15T01:25:04;16.13;;;7.63;;
24277;SDS011;12394;42.692;23.314;2023-04-15T01:27:33;20.90;;;6.80;;
24277;SDS011;12394;42.692;23.314;2023-04-15T01:30:01;11.37;;;6.63;;
24277;SDS011;12394;42.692;23.314;2023-04-15T01:32:29;9.30;;;5.30;;
24277;SDS011;12394;42.692;23.314;2023-04-15T01:34:55;9.17;;;5.60;;
24277;SDS011;12394;42.692;23.314;2023-04-15T01:37:20;9.47;;;5.57;;
24277;SDS011;12394;42.692;23.314;2023-04-15T01:39:46;8.83;;;5.73;;
24277;SDS011;12394;42.692;23.314;2023-04-15T01:42:11;11.47;;;5.63;;
24277;SDS011;12394;42.692;23.314;2023-04-15T01:44:36;8.27;;;5.80;;
24277;SDS011;12394;42.692;23.314;2023-04-15T01:47:02;10.57;;;5.50;;
24277;SDS011;12394;42.692;23.314;2023-04-15T01:49:27;9.50;;;5.97;;
24277;SDS011;12394;42.692;23.314;2023-04-15T01:51:53;11.07;;;5.63;;
24277;SDS011;12394;42.692;23.314;2023-04-15T01:54:18;8.43;;;5.60;;
24277;SDS011;12394;42.692;23.314;2023-04-15T01:56:44;9.53;;;6.30;;
24277;SDS011;12394;42.692;23.314;2023-04-15T01:59:09;9.57;;;5.80;;
24277;SDS011;12394;42.692;23.314;2023-04-15T02:01:35;9.40;;;5.80;;
24277;SDS011;12394;42.692;23.314;2023-04-15T02:04:00;7.87;;;5.23;;
24277;SDS011;12394;42.692;23.314;2023-04-15T02:06:26;14.00;;;6.40;;
24277;SDS011;12394;42.692;23.314;2023-04-15T02:08:52;11.87;;;6.13;;
24277;SDS011;12394;42.692;23.314;2023-04-15T02:11:17;11.47;;;6.70;;
24277;SDS011;12394;42.692;23.314;2023-04-15T02:13:43;10.27;;;6.07;;
24277;SDS011;12394;42.692;23.314;2023-04-15T02:16:18;10.27;;;5.83;;
24277;SDS011;12394;42.692;23.314;2023-04-15T02:18:44;9.87;;;6.07;;
24277;SDS011;12394;42.692;23.314;2023-04-15T02:21:11;9.37;;;6.10;;
24277;SDS011;12394;42.692;23.314;2023-04-15T02:23:36;12.73;;;5.77;;
24277;SDS011;12394;42.692;23.314;2023-04-15T02:26:02;13.83;;;6.73;;
24277;SDS011;12394;42.692;23.314;2023-04-15T02:28:27;13.83;;;8.77;;
24277;SDS011;12394;42.692;23.314;2023-04-15T02:30:53;13.70;;;7.53;;
24277;SDS011;12394;42.692;23.314;2023-04-15T02:33:21;16.93;;;8.73;;
24277;SDS011;12394;42.692;23.314;2023-04-15T02:35:46;21.70;;;8.63;;
24277;SDS011;12394;42.692;23.314;2023-04-15T02:38:12;14.23;;;8.20;;
24277;SDS011;12394;42.692;23.314;2023-04-15T02:40:38;13.07;;;8.00;;
24277;SDS011;12394;42.692;23.314;2023-04-15T02:43:04;12.10;;;8.43;;
24277;SDS011;12394;42.692;23.314;2023-04-15T02:45:31;13.13;;;7.90;;
24277;SDS011;12394;42.692;23.314;2023-04-15T02:47:57;12.10;;;8.13;;
24277;SDS011;12394;42.692;23.314;2023-04-15T02:50:22;11.80;;;8.13;;
24277;SDS011;12394;42.692;23.314;2023-04-15T02:52:49;18.93;;;9.07;;
24277;SDS011;12394;42.692;23.314;2023-04-15T02:55:15;13.90;;;8.00;;
24277;SDS011;12394;42.692;23.314;2023-04-15T02:57:42;17.33;;;7.53;;
24277;SDS011;12394;42.692;23.314;2023-04-15T03:02:50;10.83;;;7.47;;
24277;SDS011;12394;42.692;23.314;2023-04-15T03:05:20;11.60;;;7.13;;
24277;SDS011;12394;42.692;23.314;2023-04-15T03:07:50;8.77;;;6.57;;
24277;SDS011;12394;42.692;23.314;2023-04-15T03:10:15;11.37;;;7.30;;
24277;SDS011;12394;42.692;23.314;2023-04-15T03:12:41;24.57;;;15.77;;
24277;SDS011;12394;42.692;23.314;2023-04-15T03:15:07;34.30;;;19.40;;
24277;SDS011;12394;42.692;23.314;2023-04-15T03:17:33;32.80;;;18.47;;
24277;SDS011;12394;42.692;23.314;2023-04-15T03:20:00;17.87;;;12.73;;
24277;SDS011;12394;42.692;23.314;2023-04-15T03:22:27;18.47;;;11.13;;
24277;SDS011;12394;42.692;23.314;2023-04-15T03:24:52;22.20;;;12.10;;
24277;SDS011;12394;42.692;23.314;2023-04-15T03:27:17;22.93;;;11.93;;
24277;SDS011;12394;42.692;23.314;2023-04-15T03:29:43;16.40;;;10.60;;
24277;SDS011;12394;42.692;23.314;2023-04-15T03:32:08;24.70;;;12.30;;
24277;SDS011;12394;42.692;23.314;2023-04-15T03:34:33;21.93;;;12.63;;
24277;SDS011;12394;42.692;23.314;2023-04-15T03:36:59;25.87;;;12.17;;
24277;SDS011;12394;42.692;23.314;2023-04-15T03:39:25;18.53;;;11.77;;
24277;SDS011;12394;42.692;23.314;2023-04-15T03:41:50;23.07;;;13.67;;
24277;SDS011;12394;42.692;23.314;2023-04-15T03:44:15;16.50;;;9.30;;
24277;SDS011;12394;42.692;23.314;2023-04-15T03:46:41;20.20;;;11.90;;
24277;SDS011;12394;42.692;23.314;2023-04-15T03:49:06;23.73;;;15.30;;
24277;SDS011;12394;42.692;23.314;2023-04-15T03:51:32;23.27;;;15.17;;
24277;SDS011;12394;42.692;23.314;2023-04-15T03:53:57;23.03;;;15.37;;
24277;SDS011;12394;42.692;23.314;2023-04-15T03:56:23;18.83;;;12.60;;
24277;SDS011;12394;42.692;23.314;2023-04-15T03:58:49;21.37;;;12.60;;
24277;SDS011;12394;42.692;23.314;2023-04-15T04:01:14;13.17;;;8.37;;
24277;SDS011;12394;42.692;23.314;2023-04-15T04:03:40;17.20;;;8.87;;
24277;SDS011;12394;42.692;23.314;2023-04-15T04:06:06;11.03;;;7.77;;
24277;SDS011;12394;42.692;23.314;2023-04-15T04:08:32;12.47;;;7.40;;
24277;SDS011;12394;42.692;23.314;2023-04-15T04:10:57;9.37;;;7.63;;
24277;SDS011;12394;42.692;23.314;2023-04-15T04:13:23;15.90;;;8.10;;
24277;SDS011;12394;42.692;23.314;2023-04-15T04:15:48;16.23;;;8.50;;
24277;SDS011;12394;42.692;23.314;2023-04-15T04:18:13;12.87;;;8.47;;
24277;SDS011;12394;42.692;23.314;2023-04-15T04:20:39;14.53;;;8.43;;
24277;SDS011;12394;42.692;23.314;2023-04-15T04:23:04;13.07;;;8.43;;
24277;SDS011;12394;42.692;23.314;2023-04-15T04:25:30;13.27;;;9.00;;
24277;SDS011;12394;42.692;23.314;2023-04-15T04:27:55;13.83;;;7.93;;
24277;SDS011;12394;42.692;23.314;2023-04-15T04:30:20;14.47;;;8.73;;
24277;SDS011;12394;42.692;23.314;2023-04-15T04:32:46;21.37;;;9.43;;
24277;SDS011;12394;42.692;23.314;2023-04-15T04:35:11;11.83;;;8.27;;
24277;SDS011;12394;42.692;23.314;2023-04-15T04:37:36;15.10;;;9.80;;
24277;SDS011;12394;42.692;23.314;2023-04-15T04:40:02;10.97;;;7.60;;
24277;SDS011;12394;42.692;23.314;2023-04-15T04:42:28;10.40;;;7.57;;
24277;SDS011;12394;42.692;23.314;2023-04-15T04:44:54;10.40;;;7.57;;
24277;SDS011;12394;42.692;23.314;2023-04-15T04:47:19;11.33;;;7.00;;
24277;SDS011;12394;42.692;23.314;2023-04-15T04:49:45;14.63;;;7.93;;
24277;SDS011;12394;42.692;23.314;2023-04-15T04:52:10;11.27;;;8.00;;
24277;SDS011;12394;42.692;23.314;2023-04-15T04:54:36;13.73;;;7.07;;
24277;SDS011;12394;42.692;23.314;2023-04-15T04:57:02;11.57;;;7.53;;
24277;SDS011;12394;42.692;23.314;2023-04-15T04:59:27;17.87;;;7.97;;
24277;SDS011;12394;42.692;23.314;2023-04-15T05:01:53;16.20;;;8.13;;
24277;SDS011;12394;42.692;23.314;2023-04-15T05:04:18;14.40;;;7.40;;
24277;SDS011;12394;42.692;23.314;2023-04-15T05:06:43;10.33;;;8.10;;
24277;SDS011;12394;42.692;23.314;2023-04-15T05:09:09;14.10;;;7.80;;
24277;SDS011;12394;42.692;23.314;2023-04-15T05:11:34;10.57;;;7.53;;
24277;SDS011;12394;42.692;23.314;2023-04-15T05:14:00;20.50;;;9.57;;
24277;SDS011;12394;42.692;23.314;2023-04-15T05:16:26;10.50;;;8.07;;
24277;SDS011;12394;42.692;23.314;2023-04-15T05:18:51;10.17;;;7.43;;
24277;SDS011;12394;42.692;23.314;2023-04-15T05:21:17;24.27;;;9.37;;
24277;SDS011;12394;42.692;23.314;2023-04-15T05:23:43;10.93;;;7.63;;
24277;SDS011;12394;42.692;23.314;2023-04-15T05:26:08;12.67;;;7.90;;
24277;SDS011;12394;42.692;23.314;2023-04-15T05:28:34;10.83;;;7.80;;
24277;SDS011;12394;42.692;23.314;2023-04-15T05:30:59;11.07;;;7.60;;
24277;SDS011;12394;42.692;23.314;2023-04-15T05:33:25;12.73;;;7.67;;
24277;SDS011;12394;42.692;23.314;2023-04-15T05:35:51;10.50;;;6.83;;
24277;SDS011;12394;42.692;23.314;2023-04-15T05:38:17;9.90;;;7.17;;
24277;SDS011;12394;42.692;23.314;2023-04-15T05:40:42;12.67;;;7.30;;
24277;SDS011;12394;42.692;23.314;2023-04-15T05:43:07;10.80;;;7.50;;
24277;SDS011;12394;42.692;23.314;2023-04-15T05:45:33;16.07;;;7.50;;
24277;SDS011;12394;42.692;23.314;2023-04-15T05:47:58;30.20;;;17.73;;
24277;SDS011;12394;42.692;23.314;2023-04-15T05:50:23;8.10;;;7.20;;
24277;SDS011;12394;42.692;23.314;2023-04-15T05:52:49;11.13;;;5.87;;
24277;SDS011;12394;42.692;23.314;2023-04-15T05:55:14;10.43;;;6.63;;
24277;SDS011;12394;42.692;23.314;2023-04-15T05:57:40;11.20;;;6.90;;
24277;SDS011;12394;42.692;23.314;2023-04-15T06:00:05;13.13;;;6.97;;
24277;SDS011;12394;42.692;23.314;2023-04-15T06:02:31;8.90;;;6.63;;
24277;SDS011;12394;42.692;23.314;2023-04-15T06:04:57;11.73;;;7.87;;
24277;SDS011;12394;42.692;23.314;2023-04-15T06:07:23;12.00;;;7.07;;
24277;SDS011;12394;42.692;23.314;2023-04-15T06:09:48;10.80;;;7.47;;
24277;SDS011;12394;42.692;23.314;2023-04-15T06:12:14;19.17;;;7.83;;
24277;SDS011;12394;42.692;23.314;2023-04-15T06:14:40;8.87;;;6.60;;
24277;SDS011;12394;42.692;23.314;2023-04-15T06:17:05;9.37;;;7.03;;
24277;SDS011;12394;42.692;23.314;2023-04-15T06:19:31;10.00;;;5.97;;
24277;SDS011;12394;42.692;23.314;2023-04-15T06:21:57;8.63;;;6.10;;
24277;SDS011;12394;42.692;23.314;2023-04-15T06:24:23;8.30;;;5.60;;
24277;SDS011;12394;42.692;23.314;2023-04-15T06:26:48;9.90;;;5.33;;
24277;SDS011;12394;42.692;23.314;2023-04-15T06:29:14;10.07;;;5.83;;
24277;SDS011;12394;42.692;23.314;2023-04-15T06:31:40;9.63;;;5.40;;
24277;SDS011;12394;42.692;23.314;2023-04-15T06:34:05;8.93;;;5.33;;
24277;SDS011;12394;42.692;23.314;2023-04-15T06:36:31;9.13;;;5.43;;
24277;SDS011;12394;42.692;23.314;2023-04-15T06:38:56;13.23;;;5.53;;
24277;SDS011;12394;42.692;23.314;2023-04-15T06:41:22;11.23;;;5.40;;
24277;SDS011;12394;42.692;23.314;2023-04-15T06:43:47;8.90;;;4.30;;
24277;SDS011;12394;42.692;23.314;2023-04-15T06:46:13;15.23;;;6.80;;
24277;SDS011;12394;42.692;23.314;2023-04-15T06:48:38;8.53;;;5.77;;
24277;SDS011;12394;42.692;23.314;2023-04-15T06:51:04;8.10;;;4.63;;
24277;SDS011;12394;42.692;23.314;2023-04-15T06:53:29;9.67;;;5.20;;
24277;SDS011;12394;42.692;23.314;2023-04-15T06:55:54;17.53;;;5.40;;
24277;SDS011;12394;42.692;23.314;2023-04-15T06:58:20;17.27;;;6.77;;
24277;SDS011;12394;42.692;23.314;2023-04-15T07:00:46;10.57;;;6.07;;
24277;SDS011;12394;42.692;23.314;2023-04-15T07:03:12;8.67;;;5.67;;
24277;SDS011;12394;42.692;23.314;2023-04-15T07:05:37;9.47;;;6.13;;
24277;SDS011;12394;42.692;23.314;2023-04-15T07:08:03;9.93;;;5.80;;
24277;SDS011;12394;42.692;23.314;2023-04-15T07:10:29;12.00;;;6.50;;
24277;SDS011;12394;42.692;23.314;2023-04-15T07:12:55;12.47;;;6.60;;
24277;SDS011;12394;42.692;23.314;2023-04-15T07:15:21;10.43;;;5.63;;
24277;SDS011;12394;42.692;23.314;2023-04-15T07:17:47;10.80;;;5.67;;
24277;SDS011;12394;42.692;23.314;2023-04-15T07:20:13;13.47;;;5.90;;
24277;SDS011;12394;42.692;23.314;2023-04-15T07:22:38;8.60;;;5.17;;
24277;SDS011;12394;42.692;23.314;2023-04-15T07:25:04;11.93;;;7.63;;
24277;SDS011;12394;42.692;23.314;2023-04-15T07:27:30;11.10;;;6.57;;
24277;SDS011;12394;42.692;23.314;2023-04-15T07:29:56;7.43;;;5.50;;
24277;SDS011;12394;42.692;23.314;2023-04-15T07:32:21;7.93;;;5.63;;
24277;SDS011;12394;42.692;23.314;2023-04-15T07:34:47;10.97;;;6.30;;
24277;SDS011;12394;42.692;23.314;2023-04-15T07:37:14;12.07;;;5.90;;
24277;SDS011;12394;42.692;23.314;2023-04-15T07:39:39;21.37;;;7.07;;
24277;SDS011;12394;42.692;23.314;2023-04-15T07:42:05;13.37;;;9.27;;
24277;SDS011;12394;42.692;23.314;2023-04-15T07:44:30;14.63;;;9.30;;
24277;SDS011;12394;42.692;23.314;2023-04-15T07:46:56;17.17;;;6.17;;
24277;SDS011;12394;42.692;23.314;2023-04-15T07:49:21;10.50;;;5.87;;
24277;SDS011;12394;42.692;23.314;2023-04-15T07:51:47;17.17;;;9.40;;
24277;SDS011;12394;42.692;23.314;2023-04-15T07:54:13;26.40;;;20.00;;
24277;SDS011;12394;42.692;23.314;2023-04-15T07:56:39;9.70;;;4.83;;
24277;SDS011;12394;42.692;23.314;2023-04-15T07:59:05;13.87;;;4.40;;
24277;SDS011;12394;42.692;23.314;2023-04-15T08:01:31;7.63;;;6.23;;
24277;SDS011;12394;42.692;23.314;2023-04-15T08:03:57;9.70;;;5.10;;
24277;SDS011;12394;42.692;23.314;2023-04-15T08:06:23;7.87;;;4.03;;
24277;SDS011;12394;42.692;23.314;2023-04-15T08:08:48;7.00;;;3.50;;
24277;SDS011;12394;42.692;23.314;2023-04-15T08:11:14;19.70;;;6.77;;
24277;SDS011;12394;42.692;23.314;2023-04-15T08:13:39;10.40;;;7.10;;
24277;SDS011;12394;42.692;23.314;2023-04-15T08:16:12;7.17;;;4.30;;
24277;SDS011;12394;42.692;23.314;2023-04-15T08:18:45;7.87;;;3.87;;
24277;SDS011;12394;42.692;23.314;2023-04-15T08:21:11;7.67;;;4.40;;
24277;SDS011;12394;42.692;23.314;2023-04-15T08:23:37;9.47;;;4.70;;
24277;SDS011;12394;42.692;23.314;2023-04-15T08:26:03;6.87;;;3.43;;
24277;SDS011;12394;42.692;23.314;2023-04-15T08:28:29;8.20;;;3.23;;
24277;SDS011;12394;42.692;23.314;2023-04-15T08:30:55;6.13;;;2.90;;
24277;SDS011;12394;42.692;23.314;2023-04-15T08:33:21;5.17;;;2.77;;
24277;SDS011;12394;42.692;23.314;2023-04-15T08:35:47;3.53;;;2.03;;
24277;SDS011;12394;42.692;23.314;2023-04-15T08:38:13;6.33;;;2.17;;
24277;SDS011;12394;42.692;23.314;2023-04-15T08:40:43;7.67;;;2.40;;
24277;SDS011;12394;42.692;23.314;2023-04-15T08:43:14;5.60;;;2.40;;
24277;SDS011;12394;42.692;23.314;2023-04-15T08:45:45;4.03;;;2.13;;
24277;SDS011;12394;42.692;23.314;2023-04-15T08:48:13;6.77;;;2.03;;
24277;SDS011;12394;42.692;23.314;2023-04-15T08:50:41;4.53;;;2.27;;
24277;SDS011;12394;42.692;23.314;2023-04-15T08:53:06;4.57;;;2.40;;
24277;SDS011;12394;42.692;23.314;2023-04-15T08:55:34;3.50;;;1.80;;
24277;SDS011;12394;42.692;23.314;2023-04-15T08:58:02;4.67;;;2.13;;
24277;SDS011;12394;42.692;23.314;2023-04-15T09:00:29;7.70;;;2.07;;
24277;SDS011;12394;42.692;23.314;2023-04-15T09:02:55;4.87;;;2.13;;
24277;SDS011;12394;42.692;23.314;2023-04-15T09:05:21;3.70;;;2.30;;
24277;SDS011;12394;42.692;23.314;2023-04-15T09:07:47;6.03;;;3.23;;
24277;SDS011;12394;42.692;23.314;2023-04-15T09:10:14;6.00;;;3.57;;
24277;SDS011;12394;42.692;23.314;2023-04-15T09:12:39;16.77;;;4.17;;
24277;SDS011;12394;42.692;23.314;2023-04-15T09:15:05;8.10;;;3.30;;
24277;SDS011;12394;42.692;23.314;2023-04-15T09:17:36;5.27;;;3.40;;
24277;SDS011;12394;42.692;23.314;2023-04-15T09:20:10;5.83;;;3.43;;
24277;SDS011;12394;42.692;23.314;2023-04-15T09:22:38;5.43;;;3.07;;
24277;SDS011;12394;42.692;23.314;2023-04-15T09:27:59;4.63;;;2.73;;
24277;SDS011;12394;42.692;23.314;2023-04-15T09:30:29;5.03;;;2.77;;
24277;SDS011;12394;42.692;23.314;2023-04-15T09:35:24;4.47;;;2.60;;
24277;SDS011;12394;42.692;23.314;2023-04-15T09:37:50;4.17;;;2.33;;
24277;SDS011;12394;42.692;23.314;2023-04-15T09:43:00;4.53;;;2.50;;
24277;SDS011;12394;42.692;23.314;2023-04-15T09:45:27;5.73;;;2.77;;
24277;SDS011;12394;42.692;23.314;2023-04-15T09:47:52;4.50;;;2.87;;
24277;SDS011;12394;42.692;23.314;2023-04-15T09:50:18;5.67;;;2.33;;
24277;SDS011;12394;42.692;23.314;2023-04-15T09:52:45;4.73;;;2.47;;
24277;SDS011;12394;42.692;23.314;2023-04-15T09:55:11;3.30;;;2.30;;
24277;SDS011;12394;42.692;23.314;2023-04-15T09:57:38;4.40;;;2.33;;
24277;SDS011;12394;42.692;23.314;2023-04-15T10:00:08;3.37;;;2.27;;
24277;SDS011;12394;42.692;23.314;2023-04-15T10:02:35;3.60;;;2.00;;
24277;SDS011;12394;42.692;23.314;2023-04-15T10:05:03;5.00;;;2.70;;
24277;SDS011;12394;42.692;23.314;2023-04-15T10:07:28;6.07;;;2.90;;
24277;SDS011;12394;42.692;23.314;2023-04-15T10:09:55;3.37;;;1.77;;
24277;SDS011;12394;42.692;23.314;2023-04-15T10:12:21;3.77;;;1.83;;
24277;SDS011;12394;42.692;23.314;2023-04-15T10:14:49;4.93;;;1.97;;
24277;SDS011;12394;42.692;23.314;2023-04-15T10:17:20;3.07;;;1.50;;
24277;SDS011;12394;42.692;23.314;2023-04-15T10:19:47;4.03;;;1.73;;
24277;SDS011;12394;42.692;23.314;2023-04-15T10:22:13;6.40;;;2.43;;
24277;SDS011;12394;42.692;23.314;2023-04-15T10:24:39;5.40;;;2.10;;
24277;SDS011;12394;42.692;23.314;2023-04-15T10:27:05;3.30;;;1.80;;
24277;SDS011;12394;42.692;23.314;2023-04-15T10:29:31;5.10;;;2.43;;
24277;SDS011;12394;42.692;23.314;2023-04-15T10:31:57;4.50;;;2.00;;
24277;SDS011;12394;42.692;23.314;2023-04-15T10:34:23;3.03;;;1.90;;
24277;SDS011;12394;42.692;23.314;2023-04-15T10:36:49;2.70;;;1.77;;
24277;SDS011;12394;42.692;23.314;2023-04-15T10:44:34;3.50;;;1.73;;
24277;SDS011;12394;42.692;23.314;2023-04-15T10:47:03;3.80;;;1.50;;
24277;SDS011;12394;42.692;23.314;2023-04-15T10:49:34;2.67;;;1.60;;
24277;SDS011;12394;42.692;23.314;2023-04-15T10:52:09;3.60;;;1.70;;
24277;SDS011;12394;42.692;23.314;2023-04-15T10:54:34;3.10;;;1.40;;
24277;SDS011;12394;42.692;23.314;2023-04-15T10:59:28;4.53;;;1.20;;
24277;SDS011;12394;42.692;23.314;2023-04-15T11:12:45;2.13;;;1.40;;
24277;SDS011;12394;42.692;23.314;2023-04-15T11:17:53;3.63;;;1.27;;
24277;SDS011;12394;42.692;23.314;2023-04-15T11:20:19;2.03;;;1.53;;
24277;SDS011;12394;42.692;23.314;2023-04-15T11:22:46;2.57;;;1.53;;
24277;SDS011;12394;42.692;23.314;2023-04-15T11:25:25;3.97;;;1.40;;
24277;SDS011;12394;42.692;23.314;2023-04-15T11:27:55;2.93;;;1.30;;
24277;SDS011;12394;42.692;23.314;2023-04-15T11:30:22;3.10;;;1.17;;
24277;SDS011;12394;42.692;23.314;2023-04-15T11:32:49;1.73;;;1.20;;
24277;SDS011;12394;42.692;23.314;2023-04-15T11:35:25;2.80;;;1.07;;
24277;SDS011;12394;42.692;23.314;2023-04-15T11:37:51;4.17;;;1.13;;
24277;SDS011;12394;42.692;23.314;2023-04-15T11:40:19;4.70;;;1.40;;
24277;SDS011;12394;42.692;23.314;2023-04-15T11:43:02;4.07;;;1.40;;
24277;SDS011;12394;42.692;23.314;2023-04-15T11:45:35;2.83;;;1.13;;
24277;SDS011;12394;42.692;23.314;2023-04-15T11:48:08;2.47;;;1.60;;
24277;SDS011;12394;42.692;23.314;2023-04-15T11:50:35;3.83;;;1.57;;
24277;SDS011;12394;42.692;23.314;2023-04-15T11:53:04;1.77;;;1.00;;
24277;SDS011;12394;42.692;23.314;2023-04-15T11:55:31;5.23;;;1.60;;
24277;SDS011;12394;42.692;23.314;2023-04-15T11:58:13;3.00;;;1.30;;
24277;SDS011;12394;42.692;23.314;2023-04-15T12:03:24;2.23;;;1.57;;
24277;SDS011;12394;42.692;23.314;2023-04-15T12:16:40;1.97;;;1.30;;
24277;SDS011;12394;42.692;23.314;2023-04-15T12:19:10;3.93;;;1.70;;
24277;SDS011;12394;42.692;23.314;2023-04-15T12:21:39;5.97;;;1.30;;
24277;SDS011;12394;42.692;23.314;2023-04-15T12:24:06;1.70;;;1.20;;
24277;SDS011;12394;42.692;23.314;2023-04-15T12:26:47;3.10;;;1.40;;
24277;SDS011;12394;42.692;23.314;2023-04-15T12:29:17;2.93;;;1.17;;
24277;SDS011;12394;42.692;23.314;2023-04-15T12:31:47;1.77;;;1.30;;
24277;SDS011;12394;42.692;23.314;2023-04-15T12:34:16;1.37;;;1.00;;
24277;SDS011;12394;42.692;23.314;2023-04-15T12:36:42;2.23;;;1.00;;
24277;SDS011;12394;42.692;23.314;2023-04-15T12:39:08;1.97;;;1.27;;
24277;SDS011;12394;42.692;23.314;2023-04-15T12:41:33;1.90;;;1.00;;
24277;SDS011;12394;42.692;23.314;2023-04-15T12:43:59;3.87;;;1.07;;
24277;SDS011;12394;42.692;23.314;2023-04-15T12:46:25;3.33;;;1.27;;
24277;SDS011;12394;42.692;23.314;2023-04-15T12:48:51;2.10;;;1.00;;
24277;SDS011;12394;42.692;23.314;2023-04-15T12:51:17;2.57;;;1.40;;
24277;SDS011;12394;42.692;23.314;2023-04-15T12:53:43;2.43;;;1.37;;
24277;SDS011;12394;42.692;23.314;2023-04-15T12:56:09;2.40;;;1.30;;
24277;SDS011;12394;42.692;23.314;2023-04-15T12:58:34;2.10;;;1.33;;
24277;SDS011;12394;42.692;23.314;2023-04-15T13:01:00;3.70;;;1.40;;
24277;SDS011;12394;42.692;23.314;2023-04-15T13:03:25;3.07;;;1.17;;
24277;SDS011;12394;42.692;23.314;2023-04-15T13:05:51;5.13;;;1.13;;
24277;SDS011;12394;42.692;23.314;2023-04-15T13:08:16;7.87;;;1.40;;
24277;SDS011;12394;42.692;23.314;2023-04-15T13:10:42;2.33;;;1.00;;
24277;SDS011;12394;42.692;23.314;2023-04-15T13:13:08;4.23;;;1.10;;
24277;SDS011;12394;42.692;23.314;2023-04-15T13:15:33;5.07;;;1.20;;
24277;SDS011;12394;42.692;23.314;2023-04-15T13:17:59;3.83;;;1.40;;
24277;SDS011;12394;42.692;23.314;2023-04-15T13:20:25;3.00;;;1.27;;
24277;SDS011;12394;42.692;23.314;2023-04-15T13:22:51;3.30;;;1.30;;
24277;SDS011;12394;42.692;23.314;2023-04-15T13:25:17;1.00;;;0.90;;
24277;SDS011;12394;42.692;23.314;2023-04-15T13:27:43;3.43;;;1.20;;
24277;SDS011;12394;42.692;23.314;2023-04-15T13:30:08;2.80;;;1.10;;
24277;SDS011;12394;42.692;23.314;2023-04-15T13:32:34;1.87;;;1.20;;
24277;SDS011;12394;42.692;23.314;2023-04-15T13:34:59;1.83;;;1.00;;
24277;SDS011;12394;42.692;23.314;2023-04-15T13:37:26;3.33;;;1.20;;
24277;SDS011;12394;42.692;23.314;2023-04-15T13:39:52;1.40;;;1.10;;
24277;SDS011;12394;42.692;23.314;2023-04-15T13:42:17;1.43;;;0.80;;
24277;SDS011;12394;42.692;23.314;2023-04-15T13:44:43;2.90;;;1.57;;
24277;SDS011;12394;42.692;23.314;2023-04-15T13:47:08;6.10;;;1.33;;
24277;SDS011;12394;42.692;23.314;2023-04-15T13:49:34;3.83;;;1.20;;
24277;SDS011;12394;42.692;23.314;2023-04-15T13:51:59;2.90;;;1.33;;
24277;SDS011;12394;42.692;23.314;2023-04-15T13:54:24;2.67;;;1.30;;
24277;SDS011;12394;42.692;23.314;2023-04-15T13:56:51;3.53;;;1.90;;
24277;SDS011;12394;42.692;23.314;2023-04-15T13:59:16;2.47;;;1.43;;
24277;SDS011;12394;42.692;23.314;2023-04-15T14:01:41;2.33;;;1.50;;
24277;SDS011;12394;42.692;23.314;2023-04-15T14:04:07;2.07;;;1.00;;
24277;SDS011;12394;42.692;23.314;2023-04-15T14:06:33;4.00;;;1.00;;
24277;SDS011;12394;42.692;23.314;2023-04-15T14:08:58;3.40;;;1.13;;
24277;SDS011;12394;42.692;23.314;2023-04-15T14:11:23;4.40;;;1.20;;
24277;SDS011;12394;42.692;23.314;2023-04-15T14:13:49;2.77;;;0.93;;
24277;SDS011;12394;42.692;23.314;2023-04-15T14:16:14;3.90;;;1.20;;
24277;SDS011;12394;42.692;23.314;2023-04-15T14:18:40;2.43;;;1.30;;
24277;SDS011;12394;42.692;23.314;2023-04-15T14:21:08;1.53;;;1.00;;
24277;SDS011;12394;42.692;23.314;2023-04-15T14:23:33;2.80;;;1.37;;
24277;SDS011;12394;42.692;23.314;2023-04-15T14:25:59;4.63;;;1.93;;
24277;SDS011;12394;42.692;23.314;2023-04-15T14:28:24;2.30;;;1.10;;
24277;SDS011;12394;42.692;23.314;2023-04-15T14:30:49;3.13;;;1.63;;
24277;SDS011;12394;42.692;23.314;2023-04-15T14:33:15;3.63;;;1.47;;
24277;SDS011;12394;42.692;23.314;2023-04-15T14:35:40;4.57;;;1.40;;
24277;SDS011;12394;42.692;23.314;2023-04-15T14:38:06;3.10;;;1.47;;
24277;SDS011;12394;42.692;23.314;2023-04-15T14:40:34;3.90;;;1.13;;
24277;SDS011;12394;42.692;23.314;2023-04-15T14:43:00;2.63;;;1.30;;
24277;SDS011;12394;42.692;23.314;2023-04-15T14:45:25;2.67;;;1.23;;
24277;SDS011;12394;42.692;23.314;2023-04-15T14:47:50;7.43;;;1.10;;
24277;SDS011;12394;42.692;23.314;2023-04-15T14:50:17;2.40;;;1.30;;
24277;SDS011;12394;42.692;23.314;2023-04-15T14:52:43;3.83;;;1.00;;
24277;SDS011;12394;42.692;23.314;2023-04-15T14:55:09;2.47;;;1.23;;
24277;SDS011;12394;42.692;23.314;2023-04-15T14:57:36;4.80;;;1.33;;
24277;SDS011;12394;42.692;23.314;2023-04-15T15:00:02;1.50;;;1.10;;
24277;SDS011;12394;42.692;23.314;2023-04-15T15:02:29;2.30;;;1.37;;
24277;SDS011;12394;42.692;23.314;2023-04-15T15:04:55;4.33;;;1.30;;
24277;SDS011;12394;42.692;23.314;2023-04-15T15:07:21;4.07;;;1.10;;
24277;SDS011;12394;42.692;23.314;2023-04-15T15:09:47;3.03;;;0.93;;